Latest Weather Observations for Ballarat

IDV60801

Issued at 2:13 pm EDT Saturday 5 December 2020 (issued every 10 minutes, with the page automatically refreshed every 10 minutes)

About weather observations | Map of weather stations | Latest weather observations for VIC | Other Formats
Station Details ID: 089002 Name: BALLARAT AERODROME Lat: -37.51 Lon: 143.79 Height: 435.2 m
Data from the previous 72 hours. | See also: Recent months at Ballarat
Date/Time
EDT
Temp
°C
App
Temp
°C
Dew
Point
°C
Rel
Hum
%
Delta-T
°C
Wind Press
QNH
hPa
Press
MSL
hPa
Rain since
9am
mm
Dir  Spd
km/h
Gust
km/h
Spd
kts
Gust
kts
05/02:00pm 16.7 9.8 10.3 66 3.5 NNW 37 50 20 27 998.2 997.1 0.0
05/01:46pm 17.5 7.6 9.9 61 4.1 NNW 52 70 28 38 998.9 997.7 0.0
05/01:45pm 17.8 7.5 9.7 59 4.4 NNW 54 70 29 38 998.8 997.6 0.0
05/01:30pm 22.8 13.3 4.8 31 9.1 NNW 44 63 24 34 998.2 997.1 0.0
05/01:14pm 23.3 15.4 4.3 29 9.6 N 35 54 19 29 998.5 997.4 0.0
05/01:00pm 22.8 13.8 4.8 31 9.2 N 41 50 22 27 998.5 997.4 0.0
05/12:40pm 22.3 14.1 4.8 32 8.8 N 37 56 20 30 998.9 997.7 0.0
05/12:30pm 22.2 13.3 5.2 33 8.6 N 41 56 22 30 998.9 997.7 0.0
05/12:00pm 20.9 14.1 5.3 36 7.9 N 30 41 16 22 999.8 998.7 0.0
05/11:30am 20.5 13.0 6.1 39 7.4 NNE 35 48 19 26 999.7 998.6 0.0
05/11:00am 19.7 12.2 6.4 42 6.8 NNE 35 48 19 26 1000.3 999.2 0.0
05/10:30am 19.4 11.5 6.2 42 6.7 NNE 37 50 20 27 1001.6 1000.5 0.0
05/10:00am 19.1 10.4 6.2 43 6.6 NNE 41 52 22 28 1002.1 1001.0 0.0
05/09:46am 19.1 10.2 5.2 40 6.9 NNE 41 59 22 32 1002.3 1001.2 0.0
05/09:30am 19.0 11.0 5.8 42 6.6 NNE 37 48 20 26 1002.7 1001.6 0.0
05/09:00am 18.8 10.5 6.0 43 6.5 NNE 39 50 21 27 1003.9 1002.8 0.0
05/08:30am 17.6 11.0 6.2 47 5.7 NNE 30 43 16 23 1004.6 1003.5 0.0
05/08:00am 16.4 10.7 6.5 52 5.0 NNE 26 35 14 19 1004.6 1003.5 0.0
05/07:30am 15.9 10.0 5.8 51 5.0 NNE 26 35 14 19 1005.1 1004.1 0.0
05/07:00am 16.4 10.3 4.8 46 5.6 N 26 32 14 17 1005.3 1004.3 0.0
05/06:30am 17.0 10.9 4.7 44 6.0 NNE 26 33 14 18 1005.5 1004.5 0.0
05/06:00am 15.9 11.3 5.8 51 5.0 NNE 19 26 10 14 1005.8 1004.8 0.0
05/05:30am 14.4 10.7 6.3 58 4.0 NNE 15 20 8 11 1006.3 1005.2 0.0
05/05:00am 14.2 9.6 6.6 60 3.8 NNE 20 26 11 14 1006.7 1005.6 0.0
05/04:30am 14.2 9.8 6.6 60 3.8 NNE 19 24 10 13 1006.9 1005.8 0.0
05/04:00am 13.1 9.1 6.7 65 3.2 NNE 17 19 9 10 1007.4 1006.4 0.0
05/03:30am 12.5 8.2 6.8 68 2.8 NE 19 20 10 11 1007.4 1006.4 0.0
05/03:00am 11.4 9.2 7.7 78 1.8 NE 9 13 5 7 1008.9 1007.8 0.0
05/02:30am 10.4 7.9 6.7 78 1.8 ENE 9 11 5 6 1009.6 1008.6 0.0
05/02:00am 11.7 10.1 7.8 77 1.9 ENE 6 6 3 3 1010.3 1009.3 0.0
05/01:30am 11.8 10.7 8.5 80 1.7 E 4 6 2 3 1010.7 1009.7 0.0
05/01:00am 11.7 10.1 8.9 83 1.4 E 7 7 4 4 1011.3 1010.3 0.0
05/12:30am 11.9 10.0 9.1 83 1.4 E 9 9 5 5 1012.2 1011.2 0.0
05/12:00am 13.0 11.7 9.1 77 2.0 ESE 6 7 3 4 1012.7 1011.7 0.0
 
Date/Time
EDT
Temp
°C
App
Temp
°C
Dew
Point
°C
Rel
Hum
%
Delta-T
°C
Wind Press
QNH
hPa
Press
MSL
hPa
Rain since
9am
mm
Dir  Spd
km/h
Gust
km/h
Spd
kts
Gust
kts
04/11:30pm 13.0 11.4 8.9 76 2.1 SE 7 9 4 5 1013.3 1012.3 0.0
04/11:00pm 13.1 11.6 9.0 76 2.1 ESE 7 11 4 6 1013.7 1012.7 0.0
04/10:30pm 13.3 11.4 9.2 76 2.1 ESE 9 13 5 7 1014.0 1013.0 0.0
04/10:00pm 14.1 11.4 9.1 72 2.6 E 13 19 7 10 1013.9 1012.9 0.0
04/09:30pm 13.9 11.9 7.2 64 3.3 SSE 7 11 4 6 1013.8 1012.8 0.0
04/09:00pm 15.8 13.4 7.1 56 4.4 SSE 9 11 5 6 1013.5 1012.5 0.0
04/08:30pm 16.6 13.7 6.7 52 5.0 S 11 15 6 8 1013.6 1012.6 0.0
04/08:00pm 18.8 16.7 6.6 45 6.2 S 7 9 4 5 1013.6 1012.6 0.0
04/07:30pm 20.2 17.3 6.5 41 7.0 S 11 15 6 8 1013.9 1012.9 0.0
04/07:00pm 20.6 18.0 6.2 39 7.4 SSE 9 15 5 8 1014.1 1013.1 0.0
04/06:30pm 21.1 17.2 5.5 36 7.9 W 15 22 8 12 1014.6 1013.6 0.0
04/06:00pm 21.0 17.7 6.2 38 7.6 WSW 13 19 7 10 1014.7 1013.7 0.0
04/05:30pm 21.3 17.7 6.8 39 7.5 WSW 15 20 8 11 1014.6 1013.6 0.0
04/05:00pm 20.9 17.6 7.9 43 6.9 W 15 19 8 10 1014.6 1013.6 0.0
04/04:30pm 21.5 19.4 8.1 42 7.2 SW 9 19 5 10 1015.0 1014.1 0.0
04/04:00pm 20.3 16.4 7.0 42 6.9 SW 17 26 9 14 1015.2 1014.3 0.0
04/03:30pm 20.3 17.1 7.0 42 6.9 W 13 22 7 12 1015.9 1014.9 0.0
04/03:00pm 19.9 16.1 7.6 45 6.4 SSW 17 24 9 13 1016.4 1015.4 0.0
04/02:30pm 19.4 15.4 6.5 43 6.6 WSW 17 30 9 16 1016.7 1015.7 0.0
04/02:00pm 18.8 15.1 7.9 49 5.7 SSW 17 26 9 14 1016.9 1015.9 0.0
04/01:30pm 19.1 16.0 8.7 51 5.5 WSW 15 22 8 12 1017.2 1016.3 0.0
04/01:00pm 18.0 14.3 8.0 52 5.2 SW 17 28 9 15 1017.3 1016.4 0.0
04/12:30pm 17.0 13.2 7.4 53 4.9 S 17 26 9 14 1017.7 1016.8 0.0
04/12:00pm 16.6 12.2 6.7 52 5.0 SW 19 30 10 16 1017.9 1017.0 0.0
04/11:30am 16.0 12.5 7.2 56 4.5 SSW 15 22 8 12 1017.9 1017.0 0.0
04/11:00am 15.1 11.1 6.7 57 4.2 S 17 26 9 14 1017.9 1017.0 0.0
04/10:30am 14.5 10.2 7.1 61 3.7 SW 19 26 10 14 1018.3 1017.3 0.0
04/10:00am 14.2 10.4 7.7 65 3.3 SSW 17 24 9 13 1018.3 1017.3 0.0
04/09:30am 13.1 9.4 7.8 70 2.7 SSW 17 20 9 11 1018.2 1017.2 0.0
04/09:00am 11.8 7.5 7.1 73 2.3 SSW 19 26 10 14 1018.0 1017.1 0.0
04/08:30am 11.3 7.5 7.4 77 1.9 SSW 17 24 9 13 1017.8 1016.9 0.0
04/08:00am 10.3 6.9 7.7 84 1.3 SSW 15 22 8 12 1017.6 1016.7 0.0
04/07:30am 9.1 5.9 6.9 86 1.1 SSW 13 19 7 10 1017.3 1016.4 0.0
04/07:00am 8.3 4.9 5.9 85 1.1 SSW 13 22 7 12 1017.0 1016.1 0.0
04/06:30am 8.1 5.0 5.6 84 1.2 SSW 11 15 6 8 1016.7 1015.7 0.0
04/06:00am 8.0 5.0 5.8 86 1.0 SSW 11 15 6 8 1016.2 1015.2 0.0
04/05:30am 8.2 5.2 6.0 86 1.0 SSW 11 17 6 9 1016.0 1015.0 0.0
04/05:00am 7.4 5.3 6.0 91 0.6 SSE 6 7 3 4 1015.7 1014.7 0.0
04/04:30am 6.7 4.4 5.5 92 0.5 ESE 7 9 4 5 1015.3 1014.4 0.0
04/04:00am 6.7 3.9 5.3 91 0.6 ESE 9 13 5 7 1015.4 1014.5 0.0
04/03:30am 7.1 4.1 6.2 94 0.4 SE 11 13 6 7 1015.7 1014.7 0.0
04/03:00am 6.1 3.2 4.9 92 0.5 SSE 9 11 5 6 1016.1 1015.1 0.0
04/02:30am 7.1 4.9 6.0 93 0.5 WSW 7 9 4 5 1016.6 1015.6 0.0
04/02:00am 7.1 4.8 5.7 91 0.6 SSE 7 11 4 6 1016.6 1015.6 0.0
04/01:30am 7.9 5.4 6.5 91 0.7 SW 9 13 5 7 1017.0 1016.1 0.0
04/01:00am 8.3 6.3 6.9 91 0.7 WSW 7 11 4 6 1017.3 1016.4 0.0
04/12:30am 9.1 6.4 7.4 89 0.8 WSW 11 17 6 9 1017.5 1016.6 0.0
04/12:00am 10.9 7.3 8.5 85 1.2 WSW 17 20 9 11 1017.6 1016.7 0.0
 
Date/Time
EDT
Temp
°C
App
Temp
°C
Dew
Point
°C
Rel
Hum
%
Delta-T
°C
Wind Press
QNH
hPa
Press
MSL
hPa
Rain since
9am
mm
Dir  Spd
km/h
Gust
km/h
Spd
kts
Gust
kts
03/11:30pm 11.2 8.7 8.4 83 1.4 SSE 11 13 6 7 1017.0 1016.1 0.0
03/11:00pm 12.6 10.6 8.7 77 2.0 SE 9 13 5 7 1017.0 1016.1 0.0
03/10:30pm 13.2 10.2 9.3 77 2.0 SE 15 19 8 10 1017.0 1016.1 0.0
03/10:00pm 13.9 10.9 9.3 74 2.4 SE 15 20 8 11 1017.2 1016.3 0.0
03/09:30pm 13.4 10.7 9.1 75 2.2 SSE 13 17 7 9 1017.2 1016.3 0.0
03/09:00pm 15.4 12.4 9.1 66 3.3 S 15 19 8 10 1017.0 1016.1 0.0
03/08:30pm 19.2 16.7 4.6 38 7.2 WSW 7 9 4 5 1017.1 1016.2 0.0
03/08:00pm 20.8 18.3 4.8 35 8.0 WSW 7 9 4 5 1017.0 1016.1 0.0
03/07:30pm 21.8 18.4 3.9 31 8.9 W 11 13 6 7 1017.1 1016.2 0.0
03/07:00pm 22.1 18.4 4.7 32 8.7 W 13 19 7 10 1017.1 1016.2 0.0
03/06:30pm 22.2 18.6 2.8 28 9.4 WNW 11 17 6 9 1017.2 1016.3 0.0
03/06:00pm 22.5 18.0 4.1 30 9.2 W 17 20 9 11 1017.4 1016.5 0.0
03/05:30pm 22.4 17.5 4.0 30 9.2 W 19 24 10 13 1017.9 1017.0 0.0
03/05:00pm 22.2 16.9 5.2 33 8.6 W 22 33 12 18 1018.4 1017.4 0.0
03/04:30pm 22.5 17.9 5.4 33 8.7 W 19 32 10 17 1018.7 1017.7 0.0
03/04:00pm 22.6 18.4 5.5 33 8.7 WNW 17 28 9 15 1019.0 1018.0 0.0
03/03:30pm 21.8 16.9 5.3 34 8.4 WSW 20 28 11 15 1019.3 1018.4 0.0
03/03:00pm 21.6 18.7 6.7 38 7.7 NW 11 22 6 12 1019.5 1018.6 0.0
03/02:30pm 20.9 17.7 6.8 40 7.3 WSW 13 22 7 12 1019.8 1018.9 0.0
03/02:00pm 20.5 17.0 7.2 42 6.9 WNW 15 24 8 13 1020.0 1019.1 0.0
03/01:30pm 18.9 14.9 4.7 39 7.0 W 15 26 8 14 1020.3 1019.4 0.0
03/01:00pm 19.3 16.5 8.6 50 5.7 W 13 20 7 11 1020.7 1019.7 0.0
03/12:30pm 18.4 14.8 6.6 46 6.0 W 15 22 8 12 1021.1 1020.2 0.0
03/12:00pm 17.1 14.0 5.4 46 5.7 W 11 17 6 9 1021.5 1020.6 0.0
03/11:30am 16.6 12.8 5.6 48 5.4 NW 15 24 8 13 1021.8 1020.9 0.0
03/11:00am 15.3 12.1 5.2 51 4.9 WNW 11 17 6 9 1022.0 1021.1 0.0
03/10:30am 15.3 13.0 5.5 52 4.8 SW 7 15 4 8 1022.1 1021.2 0.0
03/10:00am 14.6 12.3 5.7 55 4.3 SE 7 13 4 7 1022.3 1021.4 0.0
03/09:30am 13.7 11.3 5.1 56 4.1 SSE 7 15 4 8 1022.5 1021.6 0.0
03/09:00am 13.1 10.5 6.2 63 3.3 ESE 9 13 5 7 1022.7 1021.8 0.0
03/08:30am 12.0 8.9 7.1 72 2.4 ESE 13 19 7 10 1022.8 1021.9 0.0
03/08:00am 10.6 7.0 6.6 76 1.9 SE 15 20 8 11 1022.4 1021.5 0.0
03/07:30am 9.3 6.1 6.7 84 1.2 SSE 13 19 7 10 1022.4 1021.5 0.0
03/07:00am 7.3 4.3 5.8 90 0.7 SSE 11 15 6 8 1022.2 1021.3 0.0
03/06:30am 5.9 2.7 4.9 93 0.4 S 11 15 6 8 1022.0 1021.1 0.0
03/06:00am 5.0 1.2 4.0 93 0.4 S 13 13 7 7 1021.6 1020.7 0.0
03/05:30am 5.5 1.8 4.6 94 0.4 S 13 15 7 8 1021.5 1020.6 0.0
03/05:00am 5.6 1.9 4.6 93 0.4 S 13 17 7 9 1021.6 1020.7 0.0
03/04:30am 5.8 2.1 4.6 92 0.5 S 13 17 7 9 1021.8 1020.9 0.0
03/04:00am 6.7 3.5 5.0 89 0.8 S 11 15 6 8 1021.7 1020.8 0.0
03/03:30am 6.9 3.3 5.1 88 0.8 SE 13 15 7 8 1021.6 1020.7 0.0
03/03:00am 7.2 3.6 5.0 86 1.0 SE 13 17 7 9 1021.7 1020.8 0.0
03/02:30am 7.9 3.1 5.5 85 1.1 SE 20 28 11 15 1021.5 1020.6 0.0
03/02:00am 7.8 3.0 5.6 86 1.0 SE 20 26 11 14 1021.8 1020.9 0.0
03/01:30am 7.4 3.2 5.5 88 0.9 SSE 17 24 9 13 1022.7 1021.8 0.0
03/01:00am 8.1 4.3 5.9 86 1.0 SSE 15 20 8 11 1023.8 1022.9 0.0
03/12:30am 8.1 4.3 5.9 86 1.0 SE 15 20 8 11 1024.2 1023.3 0.0
03/12:00am 8.2 4.4 5.7 84 1.2 SE 15 19 8 10 1024.3 1023.4 0.0
 
Date/Time
EDT
Temp
°C
App
Temp
°C
Dew
Point
°C
Rel
Hum
%
Delta-T
°C
Wind Press
QNH
hPa
Press
MSL
hPa
Rain since
9am
mm
Dir  Spd
km/h
Gust
km/h
Spd
kts
Gust
kts
02/11:30pm 8.8 3.7 5.9 82 1.4 SE 22 30 12 16 1024.1 1023.2 0.0
02/11:00pm 9.3 4.2 6.2 81 1.5 SE 22 30 12 16 1024.5 1023.6 0.0
02/10:30pm 9.6 5.1 6.3 80 1.6 SE 19 24 10 13 1024.8 1023.9 0.0
02/10:00pm 10.2 5.4 5.8 74 2.1 SSE 20 26 11 14 1024.6 1023.7 0.0
02/09:30pm 9.8 6.0 5.6 75 2.0 SSE 15 20 8 11 1024.6 1023.7 0.0
02/09:00pm 10.8 6.5 5.1 68 2.6 S 17 19 9 10 1024.4 1023.5 0.0
02/08:30pm 11.9 7.1 4.9 62 3.3 S 19 24 10 13 1024.2 1023.3 0.0
02/08:00pm 12.9 8.1 4.6 57 3.9 S 19 30 10 16 1023.9 1023.0 0.0
02/07:30pm 14.2 9.7 4.2 51 4.7 SSW 17 20 9 11 1023.9 1023.0 0.0
02/07:00pm 15.1 11.0 4.5 49 5.0 SSW 15 22 8 12 1023.9 1023.0 0.0
02/06:30pm 15.6 11.2 4.6 48 5.3 SW 17 24 9 13 1023.6 1022.7 0.0
02/06:00pm 16.0 11.4 5.6 50 5.1 SW 19 26 10 14 1023.6 1022.7 0.0
02/05:30pm 15.8 11.4 4.8 48 5.3 SSW 17 30 9 16 1023.6 1022.7 0.0
02/05:00pm 15.3 10.8 4.4 48 5.2 SSW 17 24 9 13 1023.5 1022.6 0.0
02/04:30pm 15.8 11.8 4.8 48 5.3 SW 15 26 8 14 1023.4 1022.5 0.0
02/04:00pm 15.4 11.2 3.9 46 5.4 S 15 26 8 14 1023.4 1022.5 0.0
02/03:30pm 16.4 13.1 4.8 46 5.6 S 11 17 6 9 1023.4 1022.5 0.0
02/03:00pm 15.1 10.7 4.8 50 4.9 S 17 30 9 16 1023.8 1022.9 0.0
02/02:30pm 15.7 11.6 4.1 46 5.5 SW 15 26 8 14 1024.1 1023.2 0.0

Other formats

Comma delimited format used in spreadsheet applications
http://www.bom.gov.au/fwo/IDV60801/IDV60801.94852.axf

JavaScript Object Notation format (JSON) in row-major order
http://www.bom.gov.au/fwo/IDV60801/IDV60801.94852.json

Data quality

Most of these data are generated automatically and are frequently updated. Quality checks on data are not normally performed. It is possible for incorrect values to appear. Refer to information at About Latest Weather Observations and please check the disclaimer before using these data.